Time;durP1;ratioP1;P1;durP2;ratioP2;P2;SDS_P1;SDS_P2;PMS_P1;PMS_P2;Temp;Humidity;BMP_temperature;BMP_pressure;BME280_temperature;BME280_humidity;BME280_pressure;Samples;Min_cycle;Max_cycle;Signal;HPM_P1;HPM_P2
2021/06/24 00:01:01;;;;;;;5.35;3.85;;;;;;;;;;5062794;28;20188;-75
2021/06/24 00:03:28;;;;;;;6.15;4.03;;;;;;;;;;5060845;28;20185;-75
2021/06/24 00:05:55;;;;;;;6.78;4.75;;;;;;;;;;5060298;28;20181;-75
2021/06/24 00:08:21;;;;;;;4.97;3.35;;;;;;;;;;5061602;28;20221;-75
2021/06/24 00:10:48;;;;;;;5.88;3.83;;;;;;;;;;5080282;28;20183;-75
2021/06/24 00:13:15;;;;;;;6.25;4.30;;;;;;;;;;5060301;28;20177;-75
2021/06/24 00:15:41;;;;;;;5.18;4.35;;;;;;;;;;5060511;28;20235;-76
2021/06/24 00:18:08;;;;;;;6.15;4.10;;;;;;;;;;5060062;28;20207;-75
2021/06/24 00:20:34;;;;;;;5.50;3.53;;;;;;;;;;5060480;28;20221;-75
2021/06/24 00:23:01;;;;;;;7.03;3.90;;;;;;;;;;5063865;28;20211;-75
2021/06/24 00:25:27;;;;;;;7.70;4.80;;;;;;;;;;5078083;28;20169;-75
2021/06/24 00:27:53;;;;;;;5.38;4.15;;;;;;;;;;5057715;28;20276;-75
2021/06/24 00:30:19;;;;;;;9.73;4.75;;;;;;;;;;5060581;28;20239;-75
2021/06/24 00:32:45;;;;;;;11.88;4.75;;;;;;;;;;5053641;28;20180;-75
2021/06/24 00:35:12;;;;;;;4.57;4.18;;;;;;;;;;5064175;28;20249;-75
2021/06/24 00:37:40;;;;;;;4.68;4.25;;;;;;;;;;5063024;28;20193;-75
2021/06/24 00:40:06;;;;;;;5.47;3.65;;;;;;;;;;5061752;28;20721;-75
2021/06/24 00:42:33;;;;;;;5.32;4.00;;;;;;;;;;5061253;28;20244;-75
2021/06/24 00:44:59;;;;;;;6.78;3.50;;;;;;;;;;5062304;28;20175;-75
2021/06/24 00:47:25;;;;;;;8.63;3.50;;;;;;;;;;5061342;28;20736;-75
2021/06/24 00:49:51;;;;;;;5.50;3.85;;;;;;;;;;5064550;28;20209;-75
2021/06/24 00:52:17;;;;;;;6.60;3.67;;;;;;;;;;5058468;28;20215;-75
2021/06/24 00:54:43;;;;;;;5.35;4.40;;;;;;;;;;5061609;28;20439;-75
2021/06/24 00:57:10;;;;;;;7.47;4.40;;;;;;;;;;5062800;28;20280;-75
2021/06/24 00:59:36;;;;;;;7.25;3.70;;;;;;;;;;5063653;28;20188;-75
2021/06/24 01:02:03;;;;;;;5.03;3.53;;;;;;;;;;5062828;28;20212;-75
2021/06/24 01:04:29;;;;;;;7.63;3.88;;;;;;;;;;5078477;28;20210;-75
2021/06/24 01:06:55;;;;;;;6.55;3.80;;;;;;;;;;5061434;28;20189;-75
2021/06/24 01:09:21;;;;;;;6.60;4.07;;;;;;;;;;5060941;28;20254;-75
2021/06/24 01:11:47;;;;;;;4.38;3.88;;;;;;;;;;5062475;28;20530;-75
2021/06/24 01:14:13;;;;;;;4.55;3.20;;;;;;;;;;5061162;28;20224;-75
2021/06/24 01:16:40;;;;;;;8.93;3.70;;;;;;;;;;5077342;28;20254;-75
2021/06/24 01:19:06;;;;;;;3.97;3.65;;;;;;;;;;5057309;28;20177;-75
2021/06/24 01:21:33;;;;;;;4.20;3.80;;;;;;;;;;5061132;28;20191;-75
2021/06/24 01:23:59;;;;;;;7.53;3.50;;;;;;;;;;5060868;28;20578;-75
2021/06/24 01:26:26;;;;;;;4.60;3.97;;;;;;;;;;5061372;28;20215;-75
2021/06/24 01:28:52;;;;;;;4.85;4.10;;;;;;;;;;5079814;28;20188;-75
2021/06/24 01:31:19;;;;;;;4.30;3.35;;;;;;;;;;5058822;28;20195;-75
2021/06/24 01:33:45;;;;;;;6.40;3.25;;;;;;;;;;5058538;28;20219;-75
2021/06/24 01:36:13;;;;;;;6.70;4.00;;;;;;;;;;5059444;28;20207;-75
2021/06/24 01:38:39;;;;;;;11.07;4.47;;;;;;;;;;5057604;28;20204;-75
2021/06/24 01:41:05;;;;;;;6.90;4.40;;;;;;;;;;5061267;28;20185;-75
2021/06/24 01:43:31;;;;;;;9.77;4.10;;;;;;;;;;5063906;28;20416;-75
2021/06/24 01:45:58;;;;;;;6.93;3.40;;;;;;;;;;5058785;28;20446;-75
2021/06/24 01:48:24;;;;;;;6.43;3.35;;;;;;;;;;5060575;28;20189;-75
2021/06/24 01:50:51;;;;;;;10.45;4.15;;;;;;;;;;5060968;28;20192;-75
2021/06/24 01:53:17;;;;;;;4.63;3.70;;;;;;;;;;5060984;28;20191;-75
2021/06/24 01:55:43;;;;;;;5.60;3.80;;;;;;;;;;5077124;28;20187;-75
2021/06/24 01:58:13;;;;;;;7.40;3.72;;;;;;;;;;5060121;28;20207;-75
2021/06/24 02:00:43;;;;;;;3.92;3.42;;;;;;;;;;5060063;28;20183;-74
2021/06/24 02:03:09;;;;;;;6.43;3.72;;;;;;;;;;5065200;28;20215;-75
2021/06/24 02:05:35;;;;;;;4.47;3.35;;;;;;;;;;5062484;28;20215;-75
2021/06/24 02:08:01;;;;;;;5.88;3.88;;;;;;;;;;5062578;28;20181;-75
2021/06/24 02:10:27;;;;;;;13.60;4.17;;;;;;;;;;5076832;28;20184;-75
2021/06/24 02:12:53;;;;;;;4.30;3.90;;;;;;;;;;5058394;28;20442;-75
2021/06/24 02:15:19;;;;;;;4.50;3.77;;;;;;;;;;5061267;28;20477;-75
2021/06/24 02:17:45;;;;;;;8.00;3.53;;;;;;;;;;5062753;28;20932;-75
2021/06/24 02:20:12;;;;;;;4.15;3.53;;;;;;;;;;5062718;28;20219;-75
2021/06/24 02:22:39;;;;;;;6.00;3.50;;;;;;;;;;5061315;28;20228;-75
2021/06/24 02:25:06;;;;;;;3.95;3.65;;;;;;;;;;5058507;28;20196;-75
2021/06/24 02:27:32;;;;;;;8.27;4.03;;;;;;;;;;5054949;28;20188;-75
2021/06/24 02:29:58;;;;;;;3.90;3.60;;;;;;;;;;5058628;28;20192;-75
2021/06/24 02:32:24;;;;;;;4.18;3.60;;;;;;;;;;5058925;28;20188;-75
2021/06/24 02:34:51;;;;;;;4.60;3.55;;;;;;;;;;5063658;28;20177;-75
2021/06/24 02:37:17;;;;;;;5.55;3.22;;;;;;;;;;5060917;28;20550;-75
2021/06/24 02:39:43;;;;;;;4.60;3.40;;;;;;;;;;5059893;28;20181;-75
2021/06/24 02:42:09;;;;;;;5.45;3.10;;;;;;;;;;5059008;28;20449;-75
2021/06/24 02:44:35;;;;;;;4.35;3.65;;;;;;;;;;5062394;28;20197;-75
2021/06/24 02:47:01;;;;;;;6.13;3.53;;;;;;;;;;5062484;28;20242;-75
2021/06/24 02:49:27;;;;;;;6.80;4.10;;;;;;;;;;5076840;28;20270;-75
2021/06/24 02:51:53;;;;;;;5.27;3.30;;;;;;;;;;5059704;28;20871;-75
2021/06/24 02:54:19;;;;;;;4.10;3.30;;;;;;;;;;5059304;28;20434;-75
2021/06/24 02:56:45;;;;;;;6.47;3.58;;;;;;;;;;5058068;28;20447;-75
2021/06/24 02:59:12;;;;;;;6.30;3.70;;;;;;;;;;5060727;28;20179;-75
2021/06/24 03:01:39;;;;;;;4.03;3.65;;;;;;;;;;5060610;28;20187;-75
2021/06/24 03:04:05;;;;;;;7.78;3.63;;;;;;;;;;5059699;28;20202;-75
2021/06/24 03:06:33;;;;;;;8.07;4.10;;;;;;;;;;5062538;28;20188;-73
2021/06/24 03:08:59;;;;;;;5.38;3.90;;;;;;;;;;5063458;28;20208;-75
2021/06/24 03:11:25;;;;;;;7.23;4.07;;;;;;;;;;5063905;28;20181;-75
2021/06/24 03:13:51;;;;;;;5.50;4.00;;;;;;;;;;5066775;28;20446;-76
2021/06/24 03:16:17;;;;;;;4.53;3.05;;;;;;;;;;5063383;28;20471;-74
2021/06/24 03:18:46;;;;;;;3.90;3.60;;;;;;;;;;5062751;28;20203;-75
2021/06/24 03:21:12;;;;;;;7.68;3.80;;;;;;;;;;5063257;28;20211;-75
2021/06/24 03:23:38;;;;;;;3.70;3.33;;;;;;;;;;5063369;28;20703;-76
2021/06/24 03:26:04;;;;;;;4.38;3.47;;;;;;;;;;5065744;28;20509;-75
2021/06/24 03:28:30;;;;;;;9.27;4.05;;;;;;;;;;5059914;28;20430;-75
2021/06/24 03:30:56;;;;;;;6.78;3.65;;;;;;;;;;5062951;28;20208;-74
2021/06/24 03:33:22;;;;;;;4.32;3.58;;;;;;;;;;5062674;28;20219;-75
2021/06/24 03:35:50;;;;;;;12.15;3.95;;;;;;;;;;5062894;28;20190;-75
2021/06/24 03:38:16;;;;;;;5.85;4.25;;;;;;;;;;5064624;28;20227;-75
2021/06/24 03:40:42;;;;;;;5.13;3.75;;;;;;;;;;5064486;28;20173;-75
2021/06/24 03:43:08;;;;;;;5.88;3.72;;;;;;;;;;5064036;28;20201;-75
2021/06/24 03:45:35;;;;;;;5.05;3.38;;;;;;;;;;5063022;28;20184;-75
2021/06/24 03:48:01;;;;;;;6.15;3.80;;;;;;;;;;5062775;28;20217;-75
2021/06/24 03:50:27;;;;;;;5.60;3.30;;;;;;;;;;5058786;28;20180;-75
2021/06/24 03:52:53;;;;;;;5.32;3.60;;;;;;;;;;5065980;28;20264;-75
2021/06/24 03:55:35;;;;;;;4.78;3.63;;;;;;;;;;5061173;28;20659;-75
2021/06/24 03:58:01;;;;;;;3.55;3.25;;;;;;;;;;5061082;28;20216;-75
2021/06/24 04:00:27;;;;;;;7.45;3.83;;;;;;;;;;5062835;28;20209;-74
2021/06/24 04:02:53;;;;;;;4.15;3.50;;;;;;;;;;5062716;28;20187;-75
2021/06/24 04:05:19;;;;;;;4.00;3.60;;;;;;;;;;5063213;28;20236;-75
2021/06/24 04:07:45;;;;;;;4.32;3.15;;;;;;;;;;5065408;28;20425;-75
2021/06/24 04:10:12;;;;;;;3.75;3.22;;;;;;;;;;5060334;28;20258;-75
2021/06/24 04:12:38;;;;;;;4.70;3.53;;;;;;;;;;5064014;28;20700;-75
2021/06/24 04:15:05;;;;;;;6.47;3.85;;;;;;;;;;5060274;28;20226;-75
2021/06/24 04:17:31;;;;;;;9.65;3.45;;;;;;;;;;5065338;28;20466;-75
2021/06/24 04:19:57;;;;;;;7.70;3.80;;;;;;;;;;5064982;28;20178;-75
2021/06/24 04:22:23;;;;;;;6.80;3.60;;;;;;;;;;5060631;28;20455;-75
2021/06/24 04:24:49;;;;;;;7.25;3.90;;;;;;;;;;5060768;28;20210;-75
2021/06/24 04:27:15;;;;;;;4.45;4.05;;;;;;;;;;5061164;28;20228;-76
2021/06/24 04:29:41;;;;;;;8.05;3.60;;;;;;;;;;5060466;28;20883;-75
2021/06/24 04:32:07;;;;;;;4.40;3.33;;;;;;;;;;5064206;28;20186;-75
2021/06/24 04:34:33;;;;;;;3.65;3.33;;;;;;;;;;5065318;28;20404;-75
2021/06/24 04:36:59;;;;;;;5.82;4.55;;;;;;;;;;5060743;28;20292;-75
2021/06/24 04:39:25;;;;;;;10.23;4.40;;;;;;;;;;5059992;28;20179;-75
2021/06/24 04:41:51;;;;;;;4.45;3.58;;;;;;;;;;5063029;28;20185;-75
2021/06/24 04:44:18;;;;;;;6.88;3.60;;;;;;;;;;5063344;28;20656;-75
2021/06/24 04:46:44;;;;;;;5.38;3.60;;;;;;;;;;5079522;28;20268;-75
2021/06/24 04:49:10;;;;;;;3.97;3.67;;;;;;;;;;5061213;28;20178;-75
2021/06/24 04:51:37;;;;;;;4.30;3.30;;;;;;;;;;5060952;28;20178;-75
2021/06/24 04:54:03;;;;;;;3.90;3.10;;;;;;;;;;5061677;28;20515;-75
2021/06/24 04:56:29;;;;;;;7.32;4.43;;;;;;;;;;5060567;28;20187;-75
2021/06/24 04:58:55;;;;;;;5.70;4.88;;;;;;;;;;5067881;28;20234;-75
2021/06/24 05:01:21;;;;;;;6.63;3.70;;;;;;;;;;5060321;28;20180;-75
2021/06/24 05:03:47;;;;;;;9.80;4.35;;;;;;;;;;5061010;28;20198;-76
2021/06/24 05:06:15;;;;;;;6.15;4.30;;;;;;;;;;5068846;28;20181;-75
2021/06/24 05:08:41;;;;;;;7.50;4.32;;;;;;;;;;5058801;28;20195;-75
2021/06/24 05:11:07;;;;;;;4.80;3.70;;;;;;;;;;5061458;28;20209;-75
2021/06/24 05:13:33;;;;;;;4.72;3.80;;;;;;;;;;5063971;28;20202;-75
2021/06/24 05:16:00;;;;;;;4.75;3.90;;;;;;;;;;5059978;28;20232;-75
2021/06/24 05:18:26;;;;;;;5.28;3.95;;;;;;;;;;5058883;28;20229;-75
2021/06/24 05:20:52;;;;;;;4.95;3.90;;;;;;;;;;5060029;28;20272;-75
2021/06/24 05:23:18;;;;;;;5.50;4.38;;;;;;;;;;5061831;28;20205;-75
2021/06/24 05:25:45;;;;;;;6.22;4.20;;;;;;;;;;5079403;28;20612;-75
2021/06/24 05:28:11;;;;;;;5.22;4.30;;;;;;;;;;5059628;28;20185;-75
2021/06/24 05:30:37;;;;;;;5.38;3.85;;;;;;;;;;5058712;28;20215;-75
2021/06/24 05:33:04;;;;;;;11.88;5.10;;;;;;;;;;5075546;28;20244;-75
2021/06/24 05:35:30;;;;;;;9.27;3.80;;;;;;;;;;5062131;28;20273;-75
2021/06/24 05:37:56;;;;;;;4.53;3.90;;;;;;;;;;5060916;28;20205;-75
2021/06/24 05:40:22;;;;;;;5.00;4.20;;;;;;;;;;5059304;28;20601;-75
2021/06/24 05:42:49;;;;;;;11.00;4.47;;;;;;;;;;5064360;28;20254;-75
2021/06/24 05:45:15;;;;;;;7.05;3.80;;;;;;;;;;5059738;28;20181;-75
2021/06/24 05:47:41;;;;;;;5.93;4.20;;;;;;;;;;5060930;28;20645;-74
2021/06/24 05:50:07;;;;;;;5.78;4.25;;;;;;;;;;5061131;28;20639;-75
2021/06/24 05:52:35;;;;;;;6.78;4.20;;;;;;;;;;5063158;28;20183;-75
2021/06/24 05:55:01;;;;;;;5.10;4.68;;;;;;;;;;5059388;28;20590;-76
2021/06/24 05:57:27;;;;;;;4.57;4.07;;;;;;;;;;5067671;28;20243;-75
2021/06/24 05:59:55;;;;;;;6.73;4.00;;;;;;;;;;5061266;28;20505;-75
2021/06/24 06:02:21;;;;;;;6.88;4.75;;;;;;;;;;5062200;28;20524;-75
2021/06/24 06:04:47;;;;;;;5.70;4.00;;;;;;;;;;5077628;28;20195;-75
2021/06/24 06:07:13;;;;;;;4.13;3.65;;;;;;;;;;5060985;28;20442;-76
2021/06/24 06:09:39;;;;;;;5.10;3.92;;;;;;;;;;5060761;28;20189;-75
2021/06/24 06:12:06;;;;;;;5.40;4.68;;;;;;;;;;5060942;28;20212;-75
2021/06/24 06:14:32;;;;;;;7.95;5.00;;;;;;;;;;5059402;28;20186;-75
2021/06/24 06:16:58;;;;;;;6.20;4.80;;;;;;;;;;5060929;28;20191;-75
2021/06/24 06:19:24;;;;;;;6.60;4.63;;;;;;;;;;5058732;28;20211;-74
2021/06/24 06:21:50;;;;;;;7.07;4.40;;;;;;;;;;5059008;28;20183;-75
2021/06/24 06:24:16;;;;;;;6.55;4.15;;;;;;;;;;5060051;28;20463;-75
2021/06/24 06:26:42;;;;;;;7.53;4.70;;;;;;;;;;5059834;28;20176;-75
2021/06/24 06:29:08;;;;;;;6.20;4.63;;;;;;;;;;5062421;28;20409;-74
2021/06/24 06:31:39;;;;;;;5.63;4.50;;;;;;;;;;5061567;28;20897;-75
2021/06/24 06:34:05;;;;;;;5.72;4.40;;;;;;;;;;5059206;28;20178;-75
2021/06/24 06:36:31;;;;;;;8.10;4.53;;;;;;;;;;5058459;28;20208;-75
2021/06/24 06:38:57;;;;;;;8.77;4.13;;;;;;;;;;5059639;28;20212;-75
2021/06/24 06:41:23;;;;;;;6.93;4.60;;;;;;;;;;5059469;28;20180;-75
2021/06/24 06:43:49;;;;;;;5.65;4.45;;;;;;;;;;5062352;28;20169;-74
2021/06/24 06:46:16;;;;;;;8.25;4.13;;;;;;;;;;5060075;28;20185;-75
2021/06/24 06:48:42;;;;;;;5.13;4.60;;;;;;;;;;5053779;28;20205;-75
2021/06/24 06:51:08;;;;;;;5.72;4.60;;;;;;;;;;5058379;28;20245;-75
2021/06/24 06:53:34;;;;;;;6.75;4.00;;;;;;;;;;5062878;28;20187;-74
2021/06/24 06:56:00;;;;;;;7.53;4.40;;;;;;;;;;5063297;28;20181;-74
2021/06/24 06:58:26;;;;;;;4.83;4.20;;;;;;;;;;5062308;28;20230;-75
2021/06/24 07:00:52;;;;;;;7.93;4.97;;;;;;;;;;5061419;28;20434;-77
2021/06/24 07:03:18;;;;;;;5.88;4.78;;;;;;;;;;5060573;28;20189;-74
2021/06/24 07:05:44;;;;;;;7.45;5.00;;;;;;;;;;5061141;28;20194;-74
2021/06/24 07:08:10;;;;;;;8.93;4.55;;;;;;;;;;5060605;28;20237;-75
2021/06/24 07:10:36;;;;;;;8.10;5.15;;;;;;;;;;5061532;28;20190;-76
2021/06/24 07:13:02;;;;;;;9.57;4.32;;;;;;;;;;5056762;28;20202;-75
2021/06/24 07:15:28;;;;;;;4.47;4.05;;;;;;;;;;5060655;28;20290;-74
2021/06/24 07:17:54;;;;;;;5.30;3.90;;;;;;;;;;5060465;28;20789;-75
2021/06/24 07:20:20;;;;;;;5.73;4.10;;;;;;;;;;5061275;28;20572;-75
2021/06/24 07:22:46;;;;;;;7.95;4.32;;;;;;;;;;5078228;28;20430;-75
2021/06/24 07:25:15;;;;;;;4.40;3.65;;;;;;;;;;5058152;28;20209;-75
2021/06/24 07:27:41;;;;;;;6.35;5.47;;;;;;;;;;5059642;28;20214;-75
2021/06/24 07:30:07;;;;;;;5.88;3.63;;;;;;;;;;5060871;28;20183;-75
2021/06/24 07:32:34;;;;;;;6.25;3.85;;;;;;;;;;5059993;28;20216;-75
2021/06/24 07:35:00;;;;;;;4.43;3.45;;;;;;;;;;5060857;28;20195;-75
2021/06/24 07:37:26;;;;;;;7.03;4.10;;;;;;;;;;5077260;28;20203;-75
2021/06/24 07:39:52;;;;;;;5.25;4.00;;;;;;;;;;5059535;28;20445;-75
2021/06/24 07:42:19;;;;;;;5.78;3.80;;;;;;;;;;5061645;28;20194;-76
2021/06/24 07:44:45;;;;;;;7.75;3.75;;;;;;;;;;5056844;28;20212;-75
2021/06/24 07:47:12;;;;;;;4.45;3.80;;;;;;;;;;5067813;28;20449;-75
2021/06/24 07:49:38;;;;;;;4.05;2.95;;;;;;;;;;5060287;28;20267;-75
2021/06/24 07:52:04;;;;;;;4.85;4.35;;;;;;;;;;5073386;28;20275;-75
2021/06/24 07:54:30;;;;;;;7.47;5.10;;;;;;;;;;5061547;28;20199;-75
2021/06/24 07:56:56;;;;;;;7.20;4.33;;;;;;;;;;5061587;28;20185;-75
2021/06/24 07:59:22;;;;;;;7.80;3.97;;;;;;;;;;5063877;28;20427;-75
2021/06/24 08:01:48;;;;;;;5.90;3.70;;;;;;;;;;5063695;28;20182;-75
2021/06/24 08:04:14;;;;;;;5.83;4.23;;;;;;;;;;5062155;28;20657;-75
2021/06/24 08:06:40;;;;;;;7.43;3.97;;;;;;;;;;5064671;28;20439;-75
2021/06/24 08:09:10;;;;;;;6.68;3.70;;;;;;;;;;5062853;28;20457;-75
2021/06/24 08:11:36;;;;;;;4.50;4.10;;;;;;;;;;5065661;28;20195;-75
2021/06/24 08:14:02;;;;;;;6.83;4.60;;;;;;;;;;5057636;28;20193;-75
2021/06/24 08:16:28;;;;;;;6.00;4.10;;;;;;;;;;5059210;28;20460;-75
2021/06/24 08:18:54;;;;;;;5.07;3.60;;;;;;;;;;5062209;28;20212;-75
2021/06/24 08:21:20;;;;;;;4.57;3.85;;;;;;;;;;5059588;28;20427;-75
2021/06/24 08:23:46;;;;;;;4.80;4.20;;;;;;;;;;5062176;28;20424;-76
2021/06/24 08:26:12;;;;;;;5.00;3.93;;;;;;;;;;5065110;28;20165;-77
2021/06/24 08:28:38;;;;;;;9.18;5.15;;;;;;;;;;5064880;28;20427;-75
2021/06/24 08:31:05;;;;;;;4.90;4.30;;;;;;;;;;5058928;28;20721;-75
2021/06/24 08:33:31;;;;;;;5.60;3.92;;;;;;;;;;5058335;28;20279;-75
2021/06/24 08:35:57;;;;;;;6.97;4.07;;;;;;;;;;5058887;28;20184;-75
2021/06/24 08:38:23;;;;;;;7.60;4.00;;;;;;;;;;5060252;28;20475;-75
2021/06/24 08:40:49;;;;;;;4.23;3.80;;;;;;;;;;5064037;28;20634;-76
2021/06/24 08:43:15;;;;;;;6.03;3.90;;;;;;;;;;5062731;28;20434;-75
2021/06/24 08:45:41;;;;;;;5.03;3.88;;;;;;;;;;5061499;28;20669;-74
2021/06/24 08:48:16;;;;;;;4.88;4.18;;;;;;;;;;5077183;28;20195;-75
2021/06/24 08:50:51;;;;;;;9.02;3.95;;;;;;;;;;5061728;28;20256;-75
2021/06/24 08:53:17;;;;;;;9.65;3.80;;;;;;;;;;5077468;28;20240;-75
2021/06/24 08:55:45;;;;;;;6.15;3.92;;;;;;;;;;5064263;28;20235;-75
2021/06/24 08:58:12;;;;;;;4.10;3.70;;;;;;;;;;5062377;28;20196;-75
2021/06/24 09:00:38;;;;;;;6.07;3.65;;;;;;;;;;5055309;28;20315;-76
2021/06/24 09:03:14;;;;;;;6.55;3.00;;;;;;;;;;5055921;28;20640;-76
2021/06/24 09:05:47;;;;;;;3.67;3.38;;;;;;;;;;5059741;28;20169;-75
2021/06/24 09:08:22;;;;;;;3.72;3.40;;;;;;;;;;5064943;28;20260;-75
2021/06/24 09:11:07;;;;;;;5.38;3.47;;;;;;;;;;5079479;28;20373;-76
2021/06/24 09:13:33;;;;;;;8.65;3.60;;;;;;;;;;5063071;28;20517;-75
2021/06/24 09:16:05;;;;;;;3.88;3.40;;;;;;;;;;5060235;28;20289;-76
2021/06/24 09:18:31;;;;;;;6.13;3.92;;;;;;;;;;5059713;28;20201;-76
2021/06/24 09:20:57;;;;;;;7.10;3.47;;;;;;;;;;5061639;28;20177;-76
2021/06/24 09:23:24;;;;;;;6.78;3.47;;;;;;;;;;5062309;28;20265;-76
2021/06/24 09:26:11;;;;;;;3.92;3.30;;;;;;;;;;5079401;28;20212;-76
2021/06/24 09:28:38;;;;;;;3.95;3.55;;;;;;;;;;5063780;28;20169;-76
2021/06/24 09:31:04;;;;;;;3.42;3.13;;;;;;;;;;5061125;28;20186;-75
2021/06/24 09:33:38;;;;;;;3.40;3.10;;;;;;;;;;5061318;28;20215;-76
2021/06/24 09:36:05;;;;;;;5.75;3.45;;;;;;;;;;5061443;28;20193;-76
2021/06/24 09:38:40;;;;;;;4.03;3.13;;;;;;;;;;5060025;28;20212;-76
2021/06/24 09:41:14;;;;;;;7.38;2.85;;;;;;;;;;5076413;28;20177;-76
2021/06/24 09:43:42;;;;;;;4.82;2.97;;;;;;;;;;5077403;28;20174;-76
2021/06/24 09:46:20;;;;;;;5.15;3.80;;;;;;;;;;5059039;28;20674;-76
2021/06/24 09:48:59;;;;;;;4.30;3.08;;;;;;;;;;5060521;28;20212;-76
2021/06/24 09:51:33;;;;;;;5.15;3.22;;;;;;;;;;5060958;28;20187;-76
2021/06/24 09:54:00;;;;;;;5.78;3.75;;;;;;;;;;5062139;28;20204;-76
2021/06/24 09:56:27;;;;;;;3.95;3.40;;;;;;;;;;5060056;28;20628;-76
2021/06/24 09:58:54;;;;;;;6.22;3.50;;;;;;;;;;5079271;28;20249;-76
2021/06/24 10:01:30;;;;;;;5.65;3.67;;;;;;;;;;5060480;28;20180;-76
2021/06/24 10:03:57;;;;;;;5.93;3.05;;;;;;;;;;5058895;28;20256;-75
2021/06/24 10:06:24;;;;;;;4.80;3.50;;;;;;;;;;5059072;28;20275;-76
2021/06/24 10:08:51;;;;;;;5.15;3.63;;;;;;;;;;5063519;28;20196;-76
2021/06/24 10:11:17;;;;;;;4.22;3.80;;;;;;;;;;5060951;28;20191;-76
2021/06/24 10:13:43;;;;;;;4.85;3.08;;;;;;;;;;5062085;28;20177;-77
2021/06/24 10:16:10;;;;;;;5.83;3.90;;;;;;;;;;5057798;28;20745;-76
2021/06/24 10:18:36;;;;;;;6.28;3.42;;;;;;;;;;5058904;28;20462;-76
2021/06/24 10:21:02;;;;;;;3.67;3.10;;;;;;;;;;5060731;28;20635;-76
2021/06/24 10:23:29;;;;;;;5.13;3.40;;;;;;;;;;5070849;28;20215;-76
2021/06/24 10:25:55;;;;;;;3.15;2.85;;;;;;;;;;5078572;28;20173;-76
2021/06/24 10:28:21;;;;;;;3.45;2.95;;;;;;;;;;5061011;28;20674;-76
2021/06/24 10:30:47;;;;;;;8.15;3.30;;;;;;;;;;5059849;28;20189;-77
2021/06/24 10:33:17;;;;;;;3.70;3.10;;;;;;;;;;5060078;28;20463;-76
2021/06/24 10:35:44;;;;;;;4.93;3.22;;;;;;;;;;5063563;28;20177;-77
2021/06/24 10:38:13;;;;;;;4.07;3.33;;;;;;;;;;5061089;28;20570;-77
2021/06/24 10:40:39;;;;;;;5.90;3.30;;;;;;;;;;5061863;28;20640;-76
2021/06/24 10:43:06;;;;;;;4.13;3.00;;;;;;;;;;5058492;28;20184;-76
2021/06/24 10:45:32;;;;;;;4.20;2.60;;;;;;;;;;5058565;28;20450;-76
2021/06/24 10:47:59;;;;;;;8.18;3.00;;;;;;;;;;5059961;28;20248;-76
2021/06/24 10:52:54;;;;;;;3.70;2.88;;;;;;;;;;5063426;28;20188;-76
2021/06/24 10:55:32;;;;;;;5.00;3.40;;;;;;;;;;5057541;28;20202;-76
2021/06/24 10:57:59;;;;;;;3.35;3.05;;;;;;;;;;5058803;28;20214;-76
2021/06/24 11:00:34;;;;;;;6.22;3.45;;;;;;;;;;5058303;28;20193;-76
2021/06/24 11:03:01;;;;;;;4.05;3.65;;;;;;;;;;5060178;28;20181;-76
2021/06/24 11:05:37;;;;;;;3.53;3.17;;;;;;;;;;5060634;28;20184;-76
2021/06/24 11:08:12;;;;;;;4.90;2.97;;;;;;;;;;5075449;28;20684;-77
2021/06/24 11:10:57;;;;;;;4.25;2.90;;;;;;;;;;5061814;28;20244;-77
2021/06/24 11:13:39;;;;;;;6.70;3.00;;;;;;;;;;5057865;28;20201;-76
2021/06/24 11:16:15;;;;;;;5.40;3.65;;;;;;;;;;5060797;28;20235;-76
2021/06/24 11:18:44;;;;;;;4.28;3.00;;;;;;;;;;5058222;28;20201;-76
2021/06/24 11:21:16;;;;;;;3.45;3.15;;;;;;;;;;5049376;28;20204;-76
2021/06/24 11:23:42;;;;;;;3.30;2.97;;;;;;;;;;5048864;28;20181;-77
2021/06/24 11:26:08;;;;;;;3.22;2.40;;;;;;;;;;5061526;28;20175;-76
2021/06/24 11:28:55;;;;;;;3.00;2.70;;;;;;;;;;5066169;28;20558;-78
2021/06/24 11:31:23;;;;;;;3.00;2.70;;;;;;;;;;5063746;28;20431;-77
2021/06/24 11:34:07;;;;;;;3.07;2.53;;;;;;;;;;5061810;28;20453;-76
2021/06/24 11:36:34;;;;;;;5.33;2.80;;;;;;;;;;5063143;28;20525;-77
2021/06/24 11:39:00;;;;;;;2.90;2.23;;;;;;;;;;5062650;28;20505;-76
2021/06/24 11:41:26;;;;;;;3.50;2.80;;;;;;;;;;5062805;28;20535;-77
2021/06/24 11:44:10;;;;;;;3.70;3.17;;;;;;;;;;5081985;28;20423;-77
2021/06/24 11:46:36;;;;;;;6.27;3.23;;;;;;;;;;5081256;28;20436;-76
2021/06/24 12:05:05;;;;;;;3.33;2.73;;;;;;;;;;5065470;28;20428;-77
2021/06/24 12:07:34;;;;;;;4.10;2.57;;;;;;;;;;5080057;28;20402;-78
2021/06/24 12:10:00;;;;;;;3.50;3.20;;;;;;;;;;5061112;28;20410;-78
2021/06/24 12:12:28;;;;;;;4.10;3.00;;;;;;;;;;5062599;28;20463;-78
2021/06/24 12:14:56;;;;;;;3.60;2.80;;;;;;;;;;5063701;28;20467;-78
2021/06/24 12:17:26;;;;;;;4.60;2.57;;;;;;;;;;5062525;28;20462;-78
2021/06/24 12:19:58;;;;;;;3.33;2.27;;;;;;;;;;5080440;28;20615;-78
2021/06/24 12:22:25;;;;;;;3.70;2.80;;;;;;;;;;5061993;28;20914;-78
2021/06/24 12:24:52;;;;;;;3.33;2.70;;;;;;;;;;5061562;28;20945;-80
2021/06/24 12:27:18;;;;;;;2.93;2.60;;;;;;;;;;5062313;28;20922;-78
2021/06/24 12:29:44;;;;;;;4.67;2.60;;;;;;;;;;5062199;28;21034;-78
2021/06/24 12:32:11;;;;;;;2.63;2.37;;;;;;;;;;5063335;28;20452;-79
2021/06/24 12:34:37;;;;;;;4.87;2.90;;;;;;;;;;5063384;28;20421;-78
2021/06/24 12:37:03;;;;;;;2.50;2.30;;;;;;;;;;5059977;28;20430;-80
2021/06/24 12:39:29;;;;;;;3.20;2.30;;;;;;;;;;5060457;28;20437;-80
2021/06/24 12:41:55;;;;;;;2.20;2.00;;;;;;;;;;5062643;28;20439;-79
2021/06/24 12:44:22;;;;;;;2.20;1.73;;;;;;;;;;5063355;28;20442;-78
2021/06/24 12:46:48;;;;;;;2.47;2.10;;;;;;;;;;5080167;28;20415;-78
2021/06/24 12:49:14;;;;;;;2.77;2.53;;;;;;;;;;5061657;28;20439;-79
2021/06/24 12:51:41;;;;;;;2.60;2.30;;;;;;;;;;5061454;28;20423;-79
2021/06/24 12:54:20;;;;;;;2.00;1.90;;;;;;;;;;5063839;28;20435;-78
2021/06/24 12:56:50;;;;;;;2.00;1.90;;;;;;;;;;5060333;28;20440;-79
2021/06/24 12:59:23;;;;;;;2.30;1.80;;;;;;;;;;5062418;28;20489;-79
2021/06/24 13:01:50;;;;;;;2.73;1.97;;;;;;;;;;5080037;28;20422;-80
2021/06/24 13:04:30;;;;;;;2.23;2.03;;;;;;;;;;5061339;28;20953;-80
2021/06/24 13:07:03;;;;;;;3.27;2.07;;;;;;;;;;5062125;28;20441;-81
2021/06/24 13:09:30;;;;;;;2.23;2.03;;;;;;;;;;5069300;28;20518;-80
2021/06/24 13:11:58;;;;;;;2.70;1.87;;;;;;;;;;5062016;28;20574;-80
2021/06/24 13:14:25;;;;;;;3.17;1.80;;;;;;;;;;5061775;28;20486;-80
2021/06/24 13:16:52;;;;;;;2.30;2.07;;;;;;;;;;5064187;28;20493;-80
2021/06/24 13:19:34;;;;;;;2.33;2.13;;;;;;;;;;5059486;28;20507;-81
2021/06/24 13:22:01;;;;;;;2.60;2.37;;;;;;;;;;5061112;28;20427;-81
2021/06/24 13:24:34;;;;;;;2.40;2.20;;;;;;;;;;5060225;28;20435;-80
2021/06/24 13:27:07;;;;;;;2.50;2.07;;;;;;;;;;5061259;28;21059;-79
2021/06/24 13:29:34;;;;;;;2.33;2.00;;;;;;;;;;5071763;28;20486;-81
2021/06/24 13:32:00;;;;;;;3.93;2.30;;;;;;;;;;5065036;28;20439;-79
2021/06/24 13:34:29;;;;;;;5.60;2.07;;;;;;;;;;5055893;28;20507;-78
2021/06/24 13:37:11;;;;;;;3.83;2.53;;;;;;;;;;5056292;28;20461;-79
2021/06/24 13:39:37;;;;;;;1.93;1.80;;;;;;;;;;5059978;28;20451;-79
2021/06/24 13:42:03;;;;;;;3.67;2.20;;;;;;;;;;5061122;28;21076;-79
2021/06/24 13:44:29;;;;;;;2.03;1.83;;;;;;;;;;5072952;28;20432;-79
2021/06/24 13:46:55;;;;;;;2.70;1.70;;;;;;;;;;5063079;28;20430;-79
2021/06/24 13:49:22;;;;;;;2.33;1.90;;;;;;;;;;5059709;28;20441;-79
2021/06/24 13:51:49;;;;;;;4.20;1.87;;;;;;;;;;5059440;28;20439;-79
2021/06/24 13:54:17;;;;;;;2.70;1.50;;;;;;;;;;5060867;28;20462;-79
2021/06/24 13:56:43;;;;;;;2.07;1.80;;;;;;;;;;5062389;28;20430;-80
2021/06/24 13:59:09;;;;;;;3.90;1.50;;;;;;;;;;5061683;28;20466;-80
2021/06/24 14:01:35;;;;;;;2.67;2.47;;;;;;;;;;5061830;28;20422;-80
2021/06/24 14:04:02;;;;;;;4.53;2.17;;;;;;;;;;5060004;28;20885;-78
2021/06/24 14:06:35;;;;;;;1.87;1.60;;;;;;;;;;5061464;28;20397;-79
2021/06/24 14:09:03;;;;;;;1.80;1.30;;;;;;;;;;5058822;28;20441;-78
2021/06/24 14:11:29;;;;;;;3.27;1.80;;;;;;;;;;5059815;28;20450;-79
2021/06/24 14:13:55;;;;;;;1.83;1.73;;;;;;;;;;5078555;28;20426;-80
2021/06/24 14:16:21;;;;;;;2.87;1.70;;;;;;;;;;5060831;28;20484;-79
2021/06/24 14:18:48;;;;;;;2.07;1.57;;;;;;;;;;5063264;28;20471;-80
2021/06/24 14:21:18;;;;;;;1.97;1.43;;;;;;;;;;5059382;28;20456;-80
2021/06/24 14:23:45;;;;;;;1.73;1.37;;;;;;;;;;5062340;28;20600;-80
2021/06/24 14:26:11;;;;;;;1.90;1.70;;;;;;;;;;5061558;28;20505;-79
2021/06/24 14:28:38;;;;;;;1.90;1.77;;;;;;;;;;5062677;28;20394;-79
2021/06/24 14:31:07;;;;;;;2.80;1.80;;;;;;;;;;5060018;28;20792;-79
2021/06/24 14:33:33;;;;;;;2.67;1.73;;;;;;;;;;5059940;28;20435;-77
2021/06/24 14:36:02;;;;;;;3.03;2.17;;;;;;;;;;5060463;28;20482;-77
2021/06/24 14:38:29;;;;;;;2.90;1.57;;;;;;;;;;5060217;28;20513;-79
2021/06/24 14:40:55;;;;;;;1.93;1.20;;;;;;;;;;5079171;28;20463;-79
2021/06/24 14:43:21;;;;;;;1.40;1.30;;;;;;;;;;5058705;28;20483;-80
2021/06/24 14:45:47;;;;;;;2.00;1.63;;;;;;;;;;5058569;28;20473;-78
2021/06/24 14:48:13;;;;;;;1.30;1.20;;;;;;;;;;5059432;28;20478;-80
2021/06/24 14:50:40;;;;;;;2.67;1.60;;;;;;;;;;5062264;28;20411;-82
2021/06/24 14:53:06;;;;;;;1.63;1.47;;;;;;;;;;5063131;28;20745;-78
2021/06/24 14:55:35;;;;;;;2.87;1.70;;;;;;;;;;5060917;28;20465;-78
2021/06/24 14:58:02;;;;;;;2.13;1.93;;;;;;;;;;5059534;28;20449;-80
2021/06/24 15:00:29;;;;;;;1.57;1.43;;;;;;;;;;5058305;28;20431;-79
2021/06/24 15:02:56;;;;;;;2.70;1.40;;;;;;;;;;5062564;28;20406;-80